Time;durP1;ratioP1;P1;durP2;ratioP2;P2;SDS_P1;SDS_P2;PMS_P1;PMS_P2;Temp;Humidity;BMP_temperature;BMP_pressure;BME280_temperature;BME280_humidity;BME280_pressure;Samples;Min_cycle;Max_cycle;Signal;HPM_P1;HPM_P2
2023/07/07 00:00:52;;;;;;;2.58;2.38;;;16.50;99.90;;;;;;5066455;28;20202;-70
2023/07/07 00:03:19;;;;;;;2.90;2.70;;;16.50;99.90;;;;;;5062512;28;20227;-71
2023/07/07 00:05:47;;;;;;;2.80;2.60;;;16.50;99.90;;;;;;5047436;28;20837;-69
2023/07/07 00:08:14;;;;;;;2.58;2.38;;;16.50;99.90;;;;;;5065110;28;20237;-70
2023/07/07 00:10:43;;;;;;;2.95;2.75;;;16.50;99.90;;;;;;5064485;28;20249;-70
2023/07/07 00:13:12;;;;;;;2.70;2.50;;;16.50;99.90;;;;;;5064181;28;20663;-70
2023/07/07 00:15:44;;;;;;;2.70;2.50;;;16.50;99.90;;;;;;5055624;28;20246;-71
2023/07/07 00:18:14;;;;;;;2.47;2.28;;;16.50;99.90;;;;;;5042505;28;20566;-71
2023/07/07 00:20:41;;;;;;;2.75;2.55;;;16.50;99.90;;;;;;5064159;28;20234;-71
2023/07/07 00:23:09;;;;;;;2.60;2.40;;;16.50;99.90;;;;;;5041683;28;20286;-71
2023/07/07 00:25:36;;;;;;;2.60;2.40;;;16.40;99.90;;;;;;5059066;28;20250;-71
2023/07/07 00:28:03;;;;;;;2.45;2.25;;;16.40;99.90;;;;;;5063689;28;20298;-71
2023/07/07 00:30:31;;;;;;;3.00;2.80;;;16.40;99.90;;;;;;5062863;28;20665;-71
2023/07/07 00:32:58;;;;;;;2.45;2.25;;;16.40;99.90;;;;;;5057214;28;20234;-70
2023/07/07 00:35:28;;;;;;;2.60;2.40;;;16.40;99.90;;;;;;5060260;28;20254;-70
2023/07/07 00:37:57;;;;;;;2.45;2.25;;;16.40;99.90;;;;;;5058726;28;20223;-71
2023/07/07 00:40:24;;;;;;;2.40;2.20;;;16.40;99.90;;;;;;5060656;28;20264;-71
2023/07/07 00:42:51;;;;;;;2.65;2.30;;;16.30;99.90;;;;;;5056710;28;20609;-71
2023/07/07 00:45:20;;;;;;;2.53;2.33;;;16.40;99.90;;;;;;5051895;28;20223;-71
2023/07/07 00:47:56;;;;;;;2.53;2.33;;;16.30;99.90;;;;;;5061725;28;20221;-70
2023/07/07 00:50:26;;;;;;;2.40;2.20;;;16.30;99.90;;;;;;5042515;28;20309;-70
2023/07/07 00:52:54;;;;;;;2.80;2.60;;;16.30;99.90;;;;;;5058971;28;20209;-71
2023/07/07 00:55:25;;;;;;;2.70;2.50;;;16.30;99.90;;;;;;5061385;28;20276;-71
2023/07/07 00:57:55;;;;;;;2.53;2.33;;;16.30;99.90;;;;;;5058130;28;20230;-71
2023/07/07 01:00:22;;;;;;;2.50;2.30;;;16.30;99.90;;;;;;5065525;28;20194;-71
2023/07/07 01:02:56;;;;;;;4.00;2.75;;;16.30;99.90;;;;;;5065717;28;20362;-71
2023/07/07 01:05:32;;;;;;;2.63;2.42;;;16.20;99.90;;;;;;5060404;28;20245;-71
2023/07/07 01:08:02;;;;;;;2.72;2.53;;;16.20;99.90;;;;;;5055305;28;20726;-71
2023/07/07 01:10:30;;;;;;;2.60;2.40;;;16.20;99.90;;;;;;5059330;28;20567;-72
2023/07/07 01:12:57;;;;;;;3.28;2.40;;;16.20;99.90;;;;;;5072309;28;20194;-70
2023/07/07 01:15:28;;;;;;;2.80;2.60;;;16.20;99.90;;;;;;5059530;28;20573;-71
2023/07/07 01:18:19;;;;;;;2.53;2.33;;;16.20;99.90;;;;;;5063009;28;20683;-71
2023/07/07 01:21:01;;;;;;;2.55;2.35;;;16.10;99.90;;;;;;5058796;28;20225;-72
2023/07/07 01:23:53;;;;;;;2.88;2.60;;;16.10;99.90;;;;;;5065829;28;20204;-72
2023/07/07 01:26:55;;;;;;;3.03;2.50;;;16.00;99.90;;;;;;5050960;28;20813;-72
2023/07/07 01:29:43;;;;;;;3.05;2.75;;;16.00;99.90;;;;;;5060116;28;20274;-71
2023/07/07 01:32:17;;;;;;;3.55;2.50;;;15.90;99.90;;;;;;5044788;28;20198;-72
2023/07/07 01:34:44;;;;;;;2.90;2.70;;;15.90;99.90;;;;;;5060723;28;20285;-72
2023/07/07 01:37:11;;;;;;;2.70;2.50;;;15.90;99.90;;;;;;5039106;28;20288;-72
2023/07/07 01:39:40;;;;;;;3.03;2.72;;;15.80;99.90;;;;;;5058795;28;20229;-73
2023/07/07 01:42:17;;;;;;;2.80;2.60;;;15.80;99.90;;;;;;5056772;28;20261;-73
2023/07/07 01:44:53;;;;;;;2.72;2.53;;;15.80;99.90;;;;;;5040247;28;20296;-72
2023/07/07 01:47:27;;;;;;;3.80;3.20;;;15.80;99.90;;;;;;5057684;28;20304;-73
2023/07/07 01:49:57;;;;;;;3.08;2.78;;;15.70;99.90;;;;;;5055015;28;20221;-71
2023/07/07 01:52:28;;;;;;;2.90;2.63;;;15.70;99.90;;;;;;5056719;28;20240;-71
2023/07/07 01:55:00;;;;;;;2.83;2.63;;;15.70;99.90;;;;;;5055631;28;20223;-71
2023/07/07 01:57:29;;;;;;;2.60;2.40;;;15.70;99.90;;;;;;5058681;28;20279;-71
2023/07/07 01:59:57;;;;;;;3.03;2.80;;;15.70;99.90;;;;;;5046802;28;20205;-73
2023/07/07 02:02:26;;;;;;;3.13;2.83;;;15.70;99.90;;;;;;5055428;28;20285;-74
2023/07/07 02:04:53;;;;;;;2.60;2.40;;;15.70;99.90;;;;;;5063316;28;20710;-71
2023/07/07 02:07:20;;;;;;;2.80;2.60;;;15.70;99.90;;;;;;5063050;28;20222;-75
2023/07/07 02:09:47;;;;;;;2.90;2.65;;;15.70;99.90;;;;;;5055597;28;20248;-73
2023/07/07 02:12:15;;;;;;;2.80;2.60;;;15.70;99.90;;;;;;5057821;28;20295;-71
2023/07/07 02:14:42;;;;;;;3.20;2.90;;;15.60;99.90;;;;;;5062371;28;20229;-76
2023/07/07 02:17:09;;;;;;;2.85;2.65;;;15.50;99.90;;;;;;5060935;28;20205;-74
2023/07/07 02:19:38;;;;;;;2.78;2.55;;;15.50;99.90;;;;;;5056164;28;20203;-72
2023/07/07 02:22:05;;;;;;;2.70;2.50;;;15.50;99.90;;;;;;5058828;28;20286;-73
2023/07/07 02:24:33;;;;;;;2.60;2.40;;;15.50;99.90;;;;;;5055477;28;20222;-73
2023/07/07 02:27:01;;;;;;;3.97;3.10;;;15.50;99.90;;;;;;5038800;28;20202;-72
2023/07/07 02:29:28;;;;;;;3.40;3.10;;;15.50;99.90;;;;;;5058602;28;20213;-71
2023/07/07 02:31:57;;;;;;;3.80;3.50;;;15.50;99.90;;;;;;5055703;28;20202;-73
2023/07/07 02:34:24;;;;;;;3.20;2.90;;;15.50;99.90;;;;;;5054319;28;20194;-72
2023/07/07 02:36:53;;;;;;;3.22;2.95;;;15.50;99.90;;;;;;5040313;28;20248;-70
2023/07/07 02:39:20;;;;;;;2.75;2.53;;;15.50;99.90;;;;;;5054441;28;20199;-71
2023/07/07 02:41:47;;;;;;;2.80;2.60;;;15.50;99.90;;;;;;5058434;28;20609;-73
2023/07/07 02:44:15;;;;;;;2.83;2.50;;;15.50;99.90;;;;;;5061296;28;20234;-71
2023/07/07 02:46:43;;;;;;;3.15;2.85;;;15.50;99.90;;;;;;5062047;28;20218;-73
2023/07/07 02:49:10;;;;;;;4.53;3.22;;;15.50;99.90;;;;;;5061008;28;20720;-69
2023/07/07 02:51:37;;;;;;;2.90;2.70;;;15.40;99.90;;;;;;5061477;28;20262;-73
2023/07/07 02:54:06;;;;;;;2.83;2.63;;;15.40;99.90;;;;;;5040469;28;20255;-72
2023/07/07 02:56:34;;;;;;;2.88;2.65;;;15.40;99.90;;;;;;5062204;28;20730;-74
2023/07/07 02:59:01;;;;;;;3.50;3.20;;;15.40;99.90;;;;;;5062117;28;20247;-71
2023/07/07 03:01:28;;;;;;;2.90;2.70;;;15.40;99.90;;;;;;5061992;28;20230;-71
2023/07/07 03:03:57;;;;;;;2.83;2.63;;;15.30;99.90;;;;;;5040810;28;20286;-71
2023/07/07 03:06:24;;;;;;;3.35;3.05;;;15.30;99.90;;;;;;5064072;28;20671;-72
2023/07/07 03:08:52;;;;;;;4.38;2.88;;;15.30;99.90;;;;;;5067187;28;20254;-71
2023/07/07 03:11:23;;;;;;;3.42;3.13;;;15.30;99.90;;;;;;5049758;28;20292;-74
2023/07/07 03:13:52;;;;;;;3.05;2.85;;;15.30;99.90;;;;;;5060123;28;20281;-71
2023/07/07 03:16:21;;;;;;;2.70;2.50;;;15.30;99.90;;;;;;5059982;28;20790;-71
2023/07/07 03:18:49;;;;;;;3.45;3.15;;;15.30;99.90;;;;;;5057650;28;20281;-71
2023/07/07 03:21:18;;;;;;;2.90;2.60;;;15.30;99.90;;;;;;5057621;28;20233;-71
2023/07/07 03:23:46;;;;;;;2.70;2.50;;;15.30;99.90;;;;;;5053349;28;20259;-72
2023/07/07 03:26:16;;;;;;;3.05;2.75;;;15.30;99.90;;;;;;5056209;28;20280;-70
2023/07/07 03:28:44;;;;;;;2.88;2.58;;;15.30;99.90;;;;;;5055798;28;20273;-69
2023/07/07 03:31:13;;;;;;;2.83;2.63;;;15.30;99.90;;;;;;5056603;28;20286;-72
2023/07/07 03:33:43;;;;;;;3.17;2.90;;;15.30;99.90;;;;;;5038681;28;20228;-71
2023/07/07 03:36:11;;;;;;;3.67;3.30;;;15.30;99.90;;;;;;5056254;28;20322;-72
2023/07/07 03:38:39;;;;;;;3.22;2.92;;;15.20;99.90;;;;;;5056407;28;20241;-75
2023/07/07 03:41:06;;;;;;;2.78;2.58;;;15.10;99.90;;;;;;5054621;28;20288;-71
2023/07/07 03:43:34;;;;;;;3.13;2.90;;;15.20;99.90;;;;;;5060073;28;20289;-70
2023/07/07 03:46:03;;;;;;;3.45;3.15;;;15.20;99.90;;;;;;5054585;28;20222;-72
2023/07/07 03:48:30;;;;;;;2.80;2.60;;;15.20;99.90;;;;;;5055635;28;20230;-74
2023/07/07 03:50:58;;;;;;;3.20;2.90;;;15.10;99.90;;;;;;5061413;28;20208;-73
2023/07/07 03:53:25;;;;;;;3.20;2.95;;;15.10;99.90;;;;;;5061909;28;20207;-71
2023/07/07 03:55:52;;;;;;;2.90;2.70;;;15.10;99.90;;;;;;5054284;28;20880;-73
2023/07/07 03:58:19;;;;;;;3.33;3.03;;;15.10;99.90;;;;;;5057561;28;20202;-71
2023/07/07 04:00:48;;;;;;;2.80;2.60;;;15.10;99.90;;;;;;5055806;28;20226;-71
2023/07/07 04:03:20;;;;;;;3.25;2.95;;;15.20;99.90;;;;;;5057427;28;20248;-75
2023/07/07 04:05:49;;;;;;;4.00;3.70;;;15.20;99.90;;;;;;5055339;28;20326;-72
2023/07/07 04:08:21;;;;;;;4.07;3.17;;;15.20;99.90;;;;;;5054095;28;20890;-74
2023/07/07 04:10:59;;;;;;;3.75;3.20;;;15.20;99.90;;;;;;5037853;28;20209;-72
2023/07/07 04:13:26;;;;;;;3.25;2.95;;;15.30;99.90;;;;;;5052845;28;20209;-74
2023/07/07 04:16:01;;;;;;;3.70;3.40;;;15.30;99.90;;;;;;5046980;28;20721;-72
2023/07/07 04:18:31;;;;;;;3.75;3.33;;;15.40;99.90;;;;;;5056614;28;20828;-74
2023/07/07 04:21:00;;;;;;;3.17;2.88;;;15.40;99.90;;;;;;5062236;28;20295;-73
2023/07/07 04:23:28;;;;;;;3.60;3.30;;;15.40;99.90;;;;;;5054847;28;20802;-72
2023/07/07 04:25:56;;;;;;;3.28;2.97;;;15.50;99.90;;;;;;5059569;28;20671;-73
2023/07/07 04:28:25;;;;;;;3.40;3.10;;;15.60;99.90;;;;;;5056571;28;20246;-72
2023/07/07 04:30:52;;;;;;;3.35;3.05;;;15.70;99.90;;;;;;5054420;28;20263;-75
2023/07/07 04:33:19;;;;;;;3.63;3.33;;;15.80;99.90;;;;;;5059527;28;20230;-73
2023/07/07 04:35:52;;;;;;;3.08;2.88;;;15.80;99.90;;;;;;5055353;28;20269;-71
2023/07/07 04:38:20;;;;;;;5.18;3.08;;;15.90;99.90;;;;;;5061795;28;20198;-72
2023/07/07 04:40:48;;;;;;;4.13;3.72;;;16.00;99.90;;;;;;5040126;28;20222;-72
2023/07/07 04:43:15;;;;;;;4.03;3.60;;;16.10;99.90;;;;;;5063473;28;20202;-73
2023/07/07 04:45:44;;;;;;;4.28;3.55;;;16.10;99.90;;;;;;5057784;28;21977;-73
2023/07/07 04:48:11;;;;;;;3.50;2.97;;;16.20;99.90;;;;;;5059397;28;20217;-73
2023/07/07 04:50:41;;;;;;;3.88;3.45;;;16.30;99.90;;;;;;5058431;28;20233;-71
2023/07/07 04:53:09;;;;;;;3.28;2.97;;;16.40;99.90;;;;;;5059929;28;20198;-71
2023/07/07 04:55:43;;;;;;;3.60;3.30;;;16.50;99.90;;;;;;5062246;28;20241;-72
2023/07/07 04:58:10;;;;;;;5.80;3.75;;;16.60;99.90;;;;;;5072355;28;20249;-71
2023/07/07 05:00:37;;;;;;;4.65;3.15;;;16.60;99.90;;;;;;5062431;28;20222;-72
2023/07/07 05:03:04;;;;;;;3.75;3.33;;;16.70;99.90;;;;;;5059751;28;20268;-72
2023/07/07 05:05:31;;;;;;;4.28;3.88;;;16.70;99.90;;;;;;5058057;28;20352;-72
2023/07/07 05:07:58;;;;;;;4.53;3.65;;;16.80;99.90;;;;;;5058410;28;20198;-74
2023/07/07 05:10:26;;;;;;;4.40;3.60;;;16.80;99.90;;;;;;5057765;28;21121;-72
2023/07/07 05:12:56;;;;;;;4.50;4.05;;;16.90;99.90;;;;;;5052222;28;20729;-75
2023/07/07 05:15:25;;;;;;;4.28;3.88;;;17.00;99.90;;;;;;5061885;28;20255;-71
2023/07/07 05:17:54;;;;;;;4.43;3.92;;;17.00;99.90;;;;;;5057954;28;20221;-72
2023/07/07 05:20:22;;;;;;;4.70;4.20;;;17.10;99.90;;;;;;5043058;28;20574;-71
2023/07/07 05:22:49;;;;;;;4.60;3.95;;;17.20;99.90;;;;;;5065753;28;20229;-72
2023/07/07 05:25:17;;;;;;;4.38;3.97;;;17.30;99.90;;;;;;5046575;28;20249;-70
2023/07/07 05:27:46;;;;;;;4.57;3.67;;;17.50;99.90;;;;;;5060724;28;20229;-71
2023/07/07 05:30:14;;;;;;;4.55;3.78;;;17.60;99.90;;;;;;5064185;28;20639;-71
2023/07/07 05:32:41;;;;;;;4.95;4.55;;;17.60;99.90;;;;;;5059004;28;20678;-70
2023/07/07 05:35:08;;;;;;;4.40;3.85;;;17.60;99.90;;;;;;5063320;28;20219;-71
2023/07/07 05:37:36;;;;;;;5.05;4.00;;;17.60;99.90;;;;;;5060776;28;20276;-74
2023/07/07 05:40:05;;;;;;;4.45;3.70;;;17.60;99.90;;;;;;5042266;28;20229;-69
2023/07/07 05:42:32;;;;;;;6.05;3.95;;;17.70;99.90;;;;;;5059328;28;20230;-71
2023/07/07 05:45:01;;;;;;;4.10;3.72;;;17.70;99.90;;;;;;5053782;28;20279;-71
2023/07/07 05:47:28;;;;;;;4.30;3.90;;;17.70;99.90;;;;;;5062329;28;20298;-71
2023/07/07 05:49:55;;;;;;;6.82;4.43;;;17.80;99.90;;;;;;5040467;28;20221;-71
2023/07/07 05:52:22;;;;;;;4.18;3.78;;;18.00;99.90;;;;;;5060924;28;20295;-71
2023/07/07 05:54:51;;;;;;;4.80;4.32;;;18.00;99.90;;;;;;5058162;28;20234;-70
2023/07/07 05:57:18;;;;;;;4.72;4.22;;;18.10;99.90;;;;;;5051029;28;20206;-69
2023/07/07 05:59:46;;;;;;;4.47;4.05;;;18.10;99.90;;;;;;5058783;28;20206;-69
2023/07/07 06:02:17;;;;;;;5.57;4.22;;;18.10;99.90;;;;;;5056429;28;20725;-70
2023/07/07 06:04:44;;;;;;;4.20;3.80;;;18.10;99.90;;;;;;5057233;28;20221;-71
2023/07/07 06:07:11;;;;;;;4.95;3.95;;;18.10;99.90;;;;;;5056087;28;20252;-71
2023/07/07 06:09:38;;;;;;;5.10;4.60;;;18.30;99.90;;;;;;5039457;28;20896;-72
2023/07/07 06:12:07;;;;;;;4.65;4.10;;;18.40;99.90;;;;;;5059992;28;20318;-70
2023/07/07 06:14:34;;;;;;;4.78;4.28;;;18.40;99.90;;;;;;5056241;28;20198;-72
2023/07/07 06:17:01;;;;;;;4.90;4.35;;;18.50;99.90;;;;;;5058879;28;20272;-72
2023/07/07 06:19:30;;;;;;;4.72;4.30;;;18.60;99.90;;;;;;5057278;28;20569;-71
2023/07/07 06:21:57;;;;;;;4.20;3.80;;;18.60;99.90;;;;;;5062011;28;20256;-71
2023/07/07 06:24:24;;;;;;;4.95;4.45;;;18.70;99.90;;;;;;5056058;28;20197;-71
2023/07/07 06:26:53;;;;;;;5.35;3.97;;;18.80;99.90;;;;;;5058720;28;20238;-73
2023/07/07 06:29:20;;;;;;;4.88;4.20;;;18.90;99.90;;;;;;5062676;28;20217;-70
2023/07/07 06:31:47;;;;;;;5.10;4.38;;;18.90;99.90;;;;;;5074849;28;20229;-70
2023/07/07 06:34:14;;;;;;;6.13;4.47;;;19.00;99.90;;;;;;5076183;28;20206;-72
2023/07/07 06:36:43;;;;;;;4.70;3.92;;;19.00;99.90;;;;;;5054138;28;20219;-70
2023/07/07 06:39:10;;;;;;;4.15;3.75;;;19.00;99.90;;;;;;5038776;28;20195;-72
2023/07/07 06:41:37;;;;;;;3.95;3.55;;;19.10;99.90;;;;;;5038807;28;20298;-72
2023/07/07 06:44:05;;;;;;;5.68;4.22;;;19.30;99.90;;;;;;5059010;28;20233;-72
2023/07/07 06:46:32;;;;;;;4.78;4.28;;;19.40;99.90;;;;;;5060039;28;20222;-72
2023/07/07 06:48:59;;;;;;;4.70;4.28;;;19.40;99.90;;;;;;5038168;28;20257;-71
2023/07/07 06:51:26;;;;;;;7.80;4.60;;;19.50;99.90;;;;;;5036393;28;20233;-72
2023/07/07 06:53:55;;;;;;;4.53;3.90;;;19.50;99.90;;;;;;5058659;28;20234;-72
2023/07/07 06:56:22;;;;;;;5.05;4.22;;;19.60;99.90;;;;;;5056386;28;20230;-72
2023/07/07 06:58:49;;;;;;;4.30;3.90;;;19.60;99.90;;;;;;5057384;28;20284;-72
2023/07/07 07:01:16;;;;;;;5.63;4.35;;;19.70;99.90;;;;;;5037753;28;20198;-69
2023/07/07 07:03:43;;;;;;;4.00;3.60;;;19.70;99.90;;;;;;5059724;28;20213;-70
2023/07/07 07:06:11;;;;;;;6.18;4.25;;;19.90;99.90;;;;;;5047931;28;20225;-70
2023/07/07 07:08:38;;;;;;;4.63;3.45;;;20.10;99.90;;;;;;5053483;28;20253;-69
2023/07/07 07:11:07;;;;;;;4.55;4.07;;;20.20;99.90;;;;;;5052376;28;21148;-71
2023/07/07 07:13:34;;;;;;;5.05;4.25;;;20.40;99.90;;;;;;5040751;28;20229;-73
2023/07/07 07:16:02;;;;;;;4.07;3.63;;;20.50;99.90;;;;;;5041049;28;20229;-74
2023/07/07 07:18:29;;;;;;;4.43;4.03;;;20.50;99.90;;;;;;5063331;28;20201;-73
2023/07/07 07:20:57;;;;;;;4.28;3.88;;;20.50;99.90;;;;;;5040007;28;20651;-74
2023/07/07 07:23:24;;;;;;;3.97;3.58;;;20.60;99.90;;;;;;5057518;28;20254;-73
2023/07/07 07:25:52;;;;;;;5.63;4.10;;;20.70;99.90;;;;;;5056224;28;20222;-73
2023/07/07 07:28:21;;;;;;;4.00;3.63;;;20.80;99.90;;;;;;5059872;28;20864;-74
2023/07/07 07:30:49;;;;;;;4.50;3.92;;;20.90;99.90;;;;;;5056217;28;20803;-74
2023/07/07 07:33:19;;;;;;;5.22;3.92;;;21.10;99.90;;;;;;5058479;28;20238;-74
2023/07/07 07:35:47;;;;;;;4.63;3.83;;;21.30;99.90;;;;;;5056963;28;20227;-73
2023/07/07 07:38:15;;;;;;;4.38;3.78;;;21.50;99.90;;;;;;5058237;28;20286;-74
2023/07/07 07:40:44;;;;;;;4.55;4.07;;;21.70;99.90;;;;;;5037603;28;20202;-74
2023/07/07 07:43:12;;;;;;;4.30;3.90;;;21.80;99.90;;;;;;5039245;28;20199;-74
2023/07/07 07:45:42;;;;;;;3.80;3.50;;;21.70;99.90;;;;;;5039784;28;20730;-73
2023/07/07 07:48:09;;;;;;;4.18;3.78;;;21.80;99.90;;;;;;5061079;28;20198;-72
2023/07/07 07:50:36;;;;;;;4.53;4.13;;;21.70;99.90;;;;;;5025972;28;20218;-72
2023/07/07 07:53:03;;;;;;;5.70;3.63;;;21.70;99.90;;;;;;5038469;28;20198;-71
2023/07/07 07:55:31;;;;;;;4.28;3.85;;;21.60;99.90;;;;;;5061060;28;20705;-71
2023/07/07 07:57:58;;;;;;;4.40;4.00;;;21.60;99.90;;;;;;5057418;28;20194;-73
2023/07/07 08:00:25;;;;;;;5.05;4.55;;;21.70;99.90;;;;;;5058646;28;20495;-71
2023/07/07 08:02:53;;;;;;;4.82;3.75;;;21.70;99.90;;;;;;5037323;28;20237;-71
2023/07/07 08:05:20;;;;;;;4.25;3.85;;;21.80;99.90;;;;;;5058557;28;20317;-72
2023/07/07 08:07:47;;;;;;;5.32;3.88;;;21.80;99.90;;;;;;5055989;28;20286;-72
2023/07/07 08:10:16;;;;;;;4.43;4.03;;;21.90;99.90;;;;;;5049026;28;20320;-71
2023/07/07 08:12:43;;;;;;;4.72;3.97;;;22.00;99.90;;;;;;5039518;28;20359;-72
2023/07/07 08:15:12;;;;;;;3.88;3.47;;;22.00;99.90;;;;;;5037141;28;20379;-71
2023/07/07 08:17:39;;;;;;;4.38;3.97;;;22.30;99.90;;;;;;5039624;28;20222;-71
2023/07/07 08:20:17;;;;;;;4.50;4.10;;;22.70;99.90;;;;;;5054811;28;20204;-70
2023/07/07 08:22:45;;;;;;;5.45;3.97;;;22.90;99.90;;;;;;5058938;28;20281;-71
2023/07/07 08:25:12;;;;;;;4.70;3.97;;;22.90;99.90;;;;;;5036109;28;20396;-71
2023/07/07 08:27:39;;;;;;;6.68;4.95;;;23.00;99.90;;;;;;5058214;28;20816;-70
2023/07/07 08:30:07;;;;;;;4.90;4.32;;;23.10;99.90;;;;;;5053075;28;20241;-70
2023/07/07 08:32:34;;;;;;;4.55;3.83;;;22.90;99.90;;;;;;5034856;28;20209;-71
2023/07/07 08:35:01;;;;;;;6.13;4.32;;;22.90;99.90;;;;;;5055601;28;20296;-71
2023/07/07 08:37:30;;;;;;;4.63;4.22;;;23.10;99.90;;;;;;5055086;28;20225;-71
2023/07/07 08:39:57;;;;;;;4.47;4.07;;;23.30;99.90;;;;;;5054636;28;20289;-72
2023/07/07 08:42:29;;;;;;;4.38;3.97;;;23.30;99.90;;;;;;5057799;28;20221;-71
2023/07/07 08:44:59;;;;;;;4.85;4.30;;;23.30;99.90;;;;;;5036499;28;20309;-72
2023/07/07 08:47:40;;;;;;;4.35;3.92;;;23.30;99.90;;;;;;5054497;28;20725;-72
2023/07/07 08:50:11;;;;;;;4.40;4.00;;;23.30;99.90;;;;;;5051623;28;20222;-72
2023/07/07 08:52:52;;;;;;;6.03;4.40;;;23.40;99.90;;;;;;5055131;28;20708;-72
2023/07/07 08:55:36;;;;;;;5.53;4.88;;;23.40;99.90;;;;;;5038760;28;20226;-71
2023/07/07 08:58:09;;;;;;;4.47;4.07;;;23.40;99.90;;;;;;5047184;28;20239;-71
2023/07/07 09:00:52;;;;;;;3.75;3.38;;;23.50;99.90;;;;;;5051440;28;20924;-72
2023/07/07 09:03:34;;;;;;;4.57;4.18;;;23.60;99.90;;;;;;5049956;28;20237;-71
2023/07/07 09:06:11;;;;;;;4.30;3.90;;;23.80;99.90;;;;;;5014081;28;20317;-72
2023/07/07 09:08:48;;;;;;;4.07;3.50;;;23.90;99.90;;;;;;5027066;28;20246;-71
2023/07/07 09:11:24;;;;;;;5.10;4.22;;;24.10;99.90;;;;;;5052144;28;20692;-72
2023/07/07 09:13:55;;;;;;;5.80;4.10;;;24.40;99.90;;;;;;5052830;28;20288;-71
2023/07/07 09:16:26;;;;;;;5.50;4.22;;;24.60;99.90;;;;;;5048769;28;20297;-71
2023/07/07 09:19:00;;;;;;;4.78;4.38;;;24.60;99.90;;;;;;5033504;28;20301;-71
2023/07/07 09:21:33;;;;;;;4.63;3.83;;;24.50;99.90;;;;;;5056658;28;20874;-71
2023/07/07 09:24:10;;;;;;;6.05;4.63;;;24.70;99.90;;;;;;5055452;28;20205;-72
2023/07/07 09:26:42;;;;;;;6.00;4.45;;;24.80;99.90;;;;;;5037434;28;20217;-72
2023/07/07 09:29:26;;;;;;;4.38;3.97;;;24.70;99.90;;;;;;5054961;28;20293;-72
2023/07/07 09:31:53;;;;;;;6.20;4.38;;;24.70;99.90;;;;;;5048303;28;20244;-72
2023/07/07 09:34:23;;;;;;;4.75;3.88;;;24.80;99.90;;;;;;5033654;28;20267;-72
2023/07/07 09:36:59;;;;;;;4.57;3.90;;;24.80;99.90;;;;;;5034431;28;20233;-70
2023/07/07 09:39:46;;;;;;;4.80;4.30;;;25.00;99.90;;;;;;5033398;28;20198;-72
2023/07/07 09:42:28;;;;;;;3.92;3.60;;;24.90;99.90;;;;;;5056165;28;21625;-72
2023/07/07 09:45:07;;;;;;;4.32;3.92;;;24.90;99.90;;;;;;5057680;28;20222;-71
2023/07/07 09:47:43;;;;;;;4.25;3.85;;;25.00;99.90;;;;;;5061091;28;20264;-72
2023/07/07 09:50:14;;;;;;;4.57;4.18;;;25.10;99.90;;;;;;5055085;28;20307;-72
2023/07/07 09:52:47;;;;;;;4.80;4.18;;;25.10;99.90;;;;;;5056826;28;20852;-72
2023/07/07 09:55:21;;;;;;;5.25;3.85;;;25.20;99.90;;;;;;5043078;28;20226;-72
2023/07/07 09:58:00;;;;;;;5.10;3.90;;;25.20;99.90;;;;;;5064974;28;20206;-75
2023/07/07 10:00:29;;;;;;;5.35;4.43;;;25.20;99.90;;;;;;5067367;28;20187;-73
2023/07/07 10:02:58;;;;;;;5.25;4.38;;;25.30;99.90;;;;;;5059070;28;20202;-73
2023/07/07 10:05:34;;;;;;;4.25;3.88;;;25.50;99.90;;;;;;5060168;28;20252;-72
2023/07/07 10:08:03;;;;;;;4.18;3.78;;;25.70;99.90;;;;;;5055848;28;20259;-74
2023/07/07 10:10:32;;;;;;;4.25;3.85;;;26.00;99.90;;;;;;5058082;28;20299;-74
2023/07/07 10:12:58;;;;;;;4.53;4.13;;;26.00;99.90;;;;;;5055266;28;20194;-73
2023/07/07 10:15:42;;;;;;;4.63;4.22;;;26.00;99.90;;;;;;5059585;28;20322;-73
2023/07/07 10:18:16;;;;;;;3.92;3.63;;;26.00;99.90;;;;;;5035131;28;20199;-73
2023/07/07 10:20:43;;;;;;;4.25;3.55;;;26.10;99.90;;;;;;5054139;28;20586;-74
2023/07/07 10:23:12;;;;;;;5.85;4.20;;;26.30;99.90;;;;;;5058631;28;20311;-74
2023/07/07 10:25:42;;;;;;;4.85;4.22;;;26.50;99.90;;;;;;5060563;28;20214;-73
2023/07/07 10:28:13;;;;;;;4.45;4.05;;;26.40;99.90;;;;;;5058165;28;20206;-73
2023/07/07 10:30:42;;;;;;;4.97;4.32;;;26.30;99.90;;;;;;5057656;28;20310;-72
2023/07/07 10:33:11;;;;;;;4.50;3.78;;;26.30;99.90;;;;;;5058225;28;20265;-73
2023/07/07 10:35:39;;;;;;;4.80;4.10;;;26.50;99.90;;;;;;5055543;28;20222;-73
2023/07/07 10:38:07;;;;;;;4.07;3.67;;;26.60;99.90;;;;;;5051254;28;20238;-73
2023/07/07 10:40:35;;;;;;;4.35;3.67;;;26.70;99.90;;;;;;5047129;28;20201;-75
2023/07/07 10:43:06;;;;;;;4.43;4.03;;;26.50;99.90;;;;;;5052846;28;20222;-73
2023/07/07 10:45:33;;;;;;;4.80;4.38;;;26.40;99.90;;;;;;5033701;28;20249;-72
2023/07/07 10:48:00;;;;;;;4.30;3.90;;;26.50;99.90;;;;;;5053043;28;20280;-73
2023/07/07 10:50:33;;;;;;;5.22;4.40;;;26.70;99.90;;;;;;5050003;28;20254;-73
2023/07/07 10:53:23;;;;;;;4.13;3.72;;;26.70;99.90;;;;;;5051503;28;20202;-74
2023/07/07 10:56:03;;;;;;;4.18;3.78;;;26.80;99.90;;;;;;5051156;28;20794;-73
2023/07/07 10:58:47;;;;;;;4.57;4.10;;;26.90;99.90;;;;;;5050888;28;20198;-73
2023/07/07 11:01:28;;;;;;;5.28;3.85;;;27.10;99.90;;;;;;5047804;28;20291;-73
2023/07/07 11:04:25;;;;;;;3.97;3.63;;;27.30;99.90;;;;;;5053809;28;20212;-73
2023/07/07 11:07:06;;;;;;;4.32;3.92;;;27.30;99.90;;;;;;5022890;28;20289;-73
2023/07/07 11:09:54;;;;;;;4.43;3.92;;;27.40;99.90;;;;;;5052941;28;20297;-72
2023/07/07 11:12:29;;;;;;;5.03;3.85;;;27.40;99.90;;;;;;5039669;28;20203;-72
2023/07/07 11:15:07;;;;;;;4.53;4.13;;;27.50;99.90;;;;;;5053001;28;20218;-73
2023/07/07 11:17:46;;;;;;;5.43;4.10;;;27.50;99.90;;;;;;5053259;28;20194;-72
2023/07/07 11:20:32;;;;;;;4.53;3.85;;;27.30;99.90;;;;;;5054456;28;20225;-72
2023/07/07 11:23:34;;;;;;;4.15;3.70;;;27.40;99.90;;;;;;5035738;28;20297;-72
2023/07/07 11:26:12;;;;;;;5.20;4.05;;;27.40;99.90;;;;;;5007459;28;20321;-73
2023/07/07 11:28:48;;;;;;;4.20;3.80;;;27.40;99.90;;;;;;5051382;28;20198;-71
2023/07/07 11:31:38;;;;;;;4.95;3.55;;;27.50;99.90;;;;;;5046966;28;20249;-72
2023/07/07 11:34:17;;;;;;;4.72;4.22;;;27.60;99.90;;;;;;5053177;28;20230;-72
2023/07/07 11:37:04;;;;;;;4.85;3.60;;;27.60;99.90;;;;;;5051679;28;20843;-73
2023/07/07 11:39:50;;;;;;;4.55;4.15;;;27.70;99.90;;;;;;5051143;28;20293;-72
2023/07/07 11:42:42;;;;;;;5.13;3.72;;;28.00;99.90;;;;;;5051370;28;20230;-72
2023/07/07 11:45:18;;;;;;;4.30;3.83;;;28.10;99.90;;;;;;5050562;28;20296;-73
2023/07/07 11:48:04;;;;;;;3.63;3.33;;;28.10;99.90;;;;;;5052506;28;20297;-72
2023/07/07 11:50:42;;;;;;;3.20;2.90;;;28.10;99.90;;;;;;5048345;28;20324;-75
2023/07/07 11:53:28;;;;;;;3.83;3.20;;;28.40;99.90;;;;;;5050444;28;20291;-76
2023/07/07 11:56:09;;;;;;;3.55;3.13;;;28.50;99.90;;;;;;5052439;28;20229;-73
2023/07/07 11:58:47;;;;;;;3.83;3.53;;;28.40;99.90;;;;;;5052234;28;20296;-73
2023/07/07 12:01:17;;;;;;;4.45;3.72;;;28.60;99.90;;;;;;5050430;28;20221;-72
2023/07/07 12:03:51;;;;;;;3.35;3.05;;;28.60;99.90;;;;;;5054041;28;20190;-73
2023/07/07 12:06:29;;;;;;;3.85;3.47;;;28.60;99.90;;;;;;5047878;28;20227;-74
2023/07/07 12:09:08;;;;;;;3.72;3.35;;;28.80;99.90;;;;;;5052902;28;20208;-74
2023/07/07 12:11:42;;;;;;;3.38;2.90;;;28.90;99.90;;;;;;5056425;28;20303;-73
2023/07/07 12:14:21;;;;;;;3.63;3.20;;;28.80;99.90;;;;;;5051772;28;20198;-72
2023/07/07 12:16:51;;;;;;;3.63;3.03;;;28.90;99.90;;;;;;5055026;28;20198;-74
2023/07/07 12:19:33;;;;;;;3.50;3.20;;;28.90;99.90;;;;;;5037062;28;20206;-73
2023/07/07 12:22:03;;;;;;;3.70;3.40;;;28.90;99.90;;;;;;5056325;28;20190;-74
2023/07/07 12:24:39;;;;;;;3.45;3.10;;;28.90;99.90;;;;;;5054794;28;20682;-73
2023/07/07 12:27:14;;;;;;;3.88;3.58;;;28.90;99.90;;;;;;5056387;28;20210;-74
2023/07/07 12:29:43;;;;;;;4.07;3.55;;;29.00;99.90;;;;;;5054106;28;20237;-74
2023/07/07 12:32:11;;;;;;;3.30;3.00;;;28.90;99.90;;;;;;5053319;28;20299;-74
2023/07/07 12:34:42;;;;;;;3.90;3.60;;;28.80;99.90;;;;;;5038501;28;20202;-77
2023/07/07 12:37:14;;;;;;;4.03;3.58;;;28.60;99.90;;;;;;5055280;28;20206;-74
2023/07/07 12:39:55;;;;;;;4.43;4.03;;;28.70;99.90;;;;;;5055774;28;20285;-74
2023/07/07 12:42:23;;;;;;;4.22;3.83;;;28.70;99.90;;;;;;5057231;28;20205;-74
2023/07/07 12:44:51;;;;;;;3.67;3.35;;;28.60;99.90;;;;;;5034203;28;20229;-74
2023/07/07 12:47:21;;;;;;;7.47;3.50;;;28.60;99.90;;;;;;5054143;28;20699;-74
2023/07/07 12:49:57;;;;;;;4.05;3.65;;;28.70;99.90;;;;;;5054418;28;20203;-74
2023/07/07 12:52:27;;;;;;;4.00;3.60;;;28.90;99.90;;;;;;5055795;28;20760;-73
2023/07/07 12:55:15;;;;;;;3.47;3.17;;;29.00;99.90;;;;;;5056462;28;20276;-75
2023/07/07 12:58:21;;;;;;;4.05;3.63;;;29.00;99.90;;;;;;5062600;28;20206;-73
2023/07/07 13:01:00;;;;;;;4.38;3.28;;;29.30;99.90;;;;;;5046215;28;20281;-74
2023/07/07 13:03:27;;;;;;;3.42;3.13;;;29.50;99.90;;;;;;5040045;28;20195;-75
2023/07/07 13:05:57;;;;;;;4.00;3.38;;;29.50;99.90;;;;;;5036355;28;20305;-73
2023/07/07 13:08:42;;;;;;;3.97;3.53;;;29.40;99.90;;;;;;5061195;28;20202;-74